createdAt,value
2019-05-02T00:00:49.032Z,16.77
2019-05-02T00:03:18.078Z,16.93
2019-05-02T00:05:46.308Z,16.97
2019-05-02T00:08:14.894Z,16.87
2019-05-02T00:10:44.200Z,17.37
2019-05-02T00:13:12.611Z,17.47
2019-05-02T00:15:40.837Z,16.33
2019-05-02T00:18:09.142Z,17.43
2019-05-02T00:20:37.388Z,17.63
2019-05-02T00:23:05.734Z,17.50
2019-05-02T00:25:33.985Z,16.90
2019-05-02T00:28:02.222Z,17.60
2019-05-02T00:30:34.753Z,16.97
2019-05-02T00:33:00.424Z,17.10
2019-05-02T00:35:28.730Z,17.73
2019-05-02T00:37:57.529Z,18.13
2019-05-02T00:40:27.820Z,17.43
2019-05-02T00:42:58.339Z,17.70
2019-05-02T00:45:26.096Z,18.20
2019-05-02T00:48:01.782Z,17.70
2019-05-02T00:50:31.692Z,18.30
2019-05-02T00:52:59.904Z,18.77
2019-05-02T00:55:28.984Z,18.73
2019-05-02T00:57:58.074Z,18.47
2019-05-02T01:00:26.459Z,18.20
2019-05-02T01:02:59.382Z,17.60
2019-05-02T01:05:27.628Z,17.87
2019-05-02T01:08:00.721Z,18.57
2019-05-02T01:10:25.839Z,18.53
2019-05-02T01:12:54.070Z,19.50
2019-05-02T01:15:22.461Z,19.77
2019-05-02T01:17:50.687Z,19.73
2019-05-02T01:20:22.153Z,19.07
2019-05-02T01:22:52.198Z,19.47
2019-05-02T01:25:18.869Z,19.57
2019-05-02T01:27:50.619Z,20.10
2019-05-02T01:30:22.830Z,20.27
2019-05-02T01:33:06.470Z,19.73
2019-05-02T01:35:33.586Z,19.73
2019-05-02T01:38:18.903Z,20.67
2019-05-02T01:40:53.384Z,21.07
2019-05-02T01:43:24.217Z,20.20
2019-05-02T01:45:50.625Z,20.70
2019-05-02T01:48:19.036Z,20.00
2019-05-02T01:50:47.193Z,20.60
2019-05-02T01:53:15.428Z,20.73
2019-05-02T01:55:43.651Z,20.50
2019-05-02T01:58:14.873Z,20.47
2019-05-02T02:00:44.774Z,21.13
2019-05-02T02:03:11.775Z,20.20
2019-05-02T02:05:40.274Z,21.23
2019-05-02T02:08:08.574Z,20.70
2019-05-02T02:10:36.814Z,20.87
2019-05-02T02:13:05.357Z,22.27
2019-05-02T02:15:33.773Z,22.73
2019-05-02T02:18:01.958Z,23.80
2019-05-02T02:20:49.081Z,22.57
2019-05-02T02:23:36.608Z,23.03
2019-05-02T02:26:12.047Z,23.17
2019-05-02T02:28:39.184Z,22.47
2019-05-02T02:31:07.980Z,22.10
2019-05-02T02:33:40.983Z,22.37
2019-05-02T02:36:06.518Z,22.80
2019-05-02T02:38:36.108Z,24.10
2019-05-02T02:41:06.476Z,24.70
2019-05-02T02:43:35.075Z,25.70
2019-05-02T02:46:21.787Z,24.67
2019-05-02T02:48:49.946Z,24.83
2019-05-02T02:51:23.556Z,25.40
2019-05-02T02:53:48.107Z,25.83
2019-05-02T02:56:16.410Z,26.13
2019-05-02T02:58:46.063Z,27.27
2019-05-02T03:01:20.939Z,27.07
2019-05-02T03:03:44.433Z,26.73
2019-05-02T03:06:12.679Z,27.00
2019-05-02T03:08:46.276Z,27.03
2019-05-02T03:11:22.639Z,27.20
2019-05-02T03:13:52.714Z,26.80
2019-05-02T03:16:15.573Z,27.20
2019-05-02T03:18:43.807Z,28.40
2019-05-02T03:21:13.470Z,28.10
2019-05-02T03:23:41.980Z,27.47
2019-05-02T03:26:14.783Z,28.23
2019-05-02T03:28:40.115Z,29.93
2019-05-02T03:31:23.995Z,29.87
2019-05-02T03:33:51.648Z,29.63
2019-05-02T03:36:26.100Z,29.27
2019-05-02T03:38:38.196Z,29.70
2019-05-02T03:41:06.532Z,29.13
2019-05-02T03:43:34.842Z,29.70
2019-05-02T03:46:03.130Z,31.00
2019-05-02T03:48:31.386Z,32.00
2019-05-02T03:50:59.614Z,31.53
2019-05-02T03:53:27.933Z,30.97
2019-05-02T03:55:56.450Z,31.57
2019-05-02T03:58:24.913Z,31.47
2019-05-02T04:01:00.861Z,31.57
2019-05-02T04:03:23.260Z,30.77
2019-05-02T04:05:51.431Z,32.37
2019-05-02T04:08:20.921Z,30.13
2019-05-02T04:11:09.498Z,30.80
2019-05-02T04:13:38.214Z,31.53
2019-05-02T04:16:14.290Z,32.17
2019-05-02T04:18:37.207Z,31.97
2019-05-02T04:21:05.431Z,31.90
2019-05-02T04:23:33.751Z,31.57
2019-05-02T04:26:06.837Z,31.53
2019-05-02T04:28:33.622Z,30.83
2019-05-02T04:31:01.950Z,32.60
2019-05-02T04:33:34.627Z,31.40
2019-05-02T04:36:00.073Z,32.07
2019-05-02T04:38:39.238Z,32.17
2019-05-02T04:40:59.216Z,32.87
2019-05-02T04:43:28.688Z,32.07
2019-05-02T04:46:00.011Z,32.57
2019-05-02T04:48:28.480Z,32.10
2019-05-02T04:51:02.059Z,33.60
2019-05-02T04:53:36.873Z,32.93
2019-05-02T04:56:01.814Z,32.50
2019-05-02T04:58:29.619Z,32.50
2019-05-02T05:01:00.983Z,32.00
2019-05-02T05:03:28.407Z,32.80
2019-05-02T05:05:59.364Z,30.37
2019-05-02T05:08:31.263Z,31.90
2019-05-02T05:10:57.352Z,32.20
2019-05-02T05:13:26.491Z,32.87
2019-05-02T05:15:57.266Z,32.43
2019-05-02T05:18:27.291Z,33.97
2019-05-02T05:20:54.817Z,33.90
2019-05-02T05:23:24.685Z,32.40
2019-05-02T05:26:03.415Z,33.87
2019-05-02T05:28:27.339Z,33.37
2019-05-02T05:30:55.543Z,34.70
2019-05-02T05:33:23.777Z,33.20
2019-05-02T05:35:52.724Z,33.40
2019-05-02T05:38:23.066Z,32.10
2019-05-02T05:40:50.964Z,33.17
2019-05-02T05:43:20.608Z,33.57
2019-05-02T05:45:56.126Z,32.27
2019-05-02T05:48:18.928Z,32.87
2019-05-02T05:50:47.776Z,32.33
2019-05-02T05:53:17.216Z,32.67
2019-05-02T05:55:47.362Z,34.23
2019-05-02T05:58:18.468Z,32.20
2019-05-02T06:00:45.831Z,33.47
2019-05-02T06:03:17.750Z,32.83
2019-05-02T06:05:47.636Z,32.73
2019-05-02T06:08:18.771Z,32.30
2019-05-02T06:10:45.408Z,32.53
2019-05-02T06:13:13.659Z,32.80
2019-05-02T06:15:41.905Z,32.67
2019-05-02T06:18:10.143Z,31.63
2019-05-02T06:20:38.355Z,31.70
2019-05-02T06:23:06.543Z,33.37
2019-05-02T06:25:36.759Z,33.10
2019-05-02T06:28:05.329Z,32.87
2019-05-02T06:30:34.600Z,32.60
2019-05-02T06:33:02.752Z,32.87
2019-05-02T06:35:31.000Z,32.97
2019-05-02T06:37:59.220Z,33.40
2019-05-02T06:40:27.478Z,32.83
2019-05-02T06:42:55.702Z,33.60
2019-05-02T06:45:24.030Z,33.57
2019-05-02T06:47:52.287Z,33.73
2019-05-02T06:50:20.540Z,34.63
2019-05-02T06:52:48.763Z,34.97
2019-05-02T06:55:17.087Z,34.67
2019-05-02T06:57:45.317Z,34.57
2019-05-02T07:00:13.750Z,33.43
2019-05-02T07:02:42.013Z,34.30
2019-05-02T07:05:10.534Z,34.17
2019-05-02T07:07:38.785Z,34.07
2019-05-02T07:10:07.585Z,35.70
2019-05-02T07:12:35.870Z,35.43
2019-05-02T07:15:09.255Z,35.50
2019-05-02T07:17:42.086Z,34.00
2019-05-02T07:20:10.832Z,34.57
2019-05-02T07:22:40.844Z,34.73
2019-05-02T07:25:09.290Z,34.50
2019-05-02T07:27:39.195Z,36.33
2019-05-02T07:30:08.108Z,36.93
2019-05-02T07:32:36.336Z,36.47
2019-05-02T07:35:05.477Z,37.33
2019-05-02T07:37:33.684Z,38.47
2019-05-02T07:40:01.850Z,39.13
2019-05-02T07:42:30.093Z,38.80
2019-05-02T07:44:58.325Z,39.23
2019-05-02T07:47:28.821Z,40.80
2019-05-02T07:49:56.376Z,40.80
2019-05-02T07:52:24.539Z,38.37
2019-05-02T07:54:56.141Z,39.67
2019-05-02T07:57:25.130Z,39.33
2019-05-02T07:59:54.977Z,39.03
2019-05-02T08:02:25.204Z,36.40
2019-05-02T08:04:52.357Z,36.97
2019-05-02T08:07:21.121Z,37.10
2019-05-02T08:09:50.483Z,37.63
2019-05-02T08:12:18.794Z,36.87
2019-05-02T08:14:47.021Z,36.67
2019-05-02T08:17:17.291Z,36.20
2019-05-02T08:19:45.157Z,35.53
2019-05-02T08:22:14.901Z,35.10
2019-05-02T08:24:43.329Z,37.03
2019-05-02T08:27:13.211Z,36.40
2019-05-02T08:29:41.507Z,36.87
2019-05-02T08:32:09.753Z,35.67
2019-05-02T08:34:37.897Z,36.97
2019-05-02T08:37:06.227Z,37.40
2019-05-02T08:39:35.246Z,37.17
2019-05-02T08:42:03.775Z,37.60
2019-05-02T08:44:32.011Z,35.63
2019-05-02T08:47:00.243Z,35.73
2019-05-02T08:49:28.465Z,37.37
2019-05-02T08:51:56.634Z,36.60
2019-05-02T08:54:28.093Z,37.43
2019-05-02T08:56:58.917Z,37.83
2019-05-02T08:59:26.087Z,38.53
2019-05-02T09:01:54.445Z,38.10
2019-05-02T09:04:24.101Z,37.23
2019-05-02T09:06:53.200Z,38.57
2019-05-02T09:09:22.723Z,37.03
2019-05-02T09:12:04.925Z,37.07
2019-05-02T09:14:22.225Z,37.13
2019-05-02T09:16:52.253Z,37.33
2019-05-02T09:19:21.383Z,38.50
2019-05-02T09:21:52.171Z,38.03
2019-05-02T09:24:21.916Z,37.47
2019-05-02T09:26:51.774Z,37.33
2019-05-02T09:29:22.064Z,36.63
2019-05-02T09:31:49.825Z,35.87
2019-05-02T09:34:22.799Z,36.63
2019-05-02T09:36:47.952Z,36.00
2019-05-02T09:39:16.122Z,35.80
2019-05-02T09:41:44.338Z,36.07
2019-05-02T09:44:14.614Z,34.53
2019-05-02T09:46:42.867Z,36.23
2019-05-02T09:49:16.269Z,35.87
2019-05-02T09:51:42.030Z,33.93
2019-05-02T09:54:11.979Z,31.57
2019-05-02T09:56:40.393Z,31.43
2019-05-02T09:59:25.875Z,32.57
2019-05-02T10:01:42.175Z,33.00
2019-05-02T10:04:12.005Z,31.70
2019-05-02T10:06:42.349Z,34.67
2019-05-02T10:09:12.107Z,35.43
2019-05-02T10:11:41.823Z,33.90
2019-05-02T10:14:11.794Z,32.97
2019-05-02T10:16:42.201Z,31.83
2019-05-02T10:19:11.472Z,31.47
2019-05-02T10:21:42.106Z,31.77
2019-05-02T10:24:10.071Z,32.80
2019-05-02T10:26:38.298Z,33.10
2019-05-02T10:29:06.578Z,31.23
2019-05-02T10:31:37.689Z,29.87
2019-05-02T10:34:08.431Z,30.00
2019-05-02T10:36:34.721Z,29.07
2019-05-02T10:39:04.873Z,28.83
2019-05-02T10:41:39.336Z,28.00
2019-05-02T10:44:03.096Z,26.95
2019-05-02T10:46:37.588Z,27.05
2019-05-02T10:49:07.255Z,27.95
2019-05-02T10:51:35.544Z,27.13
2019-05-02T10:54:05.340Z,27.62
2019-05-02T10:56:33.837Z,26.52
2019-05-02T10:59:02.308Z,26.90
2019-05-02T11:01:32.378Z,26.42
2019-05-02T11:04:02.245Z,26.95
2019-05-02T11:06:32.351Z,26.45
2019-05-02T11:09:00.386Z,28.38
2019-05-02T11:11:32.231Z,27.15
2019-05-02T11:14:13.933Z,26.42
2019-05-02T11:17:01.835Z,26.97
2019-05-02T11:19:37.189Z,27.73
2019-05-02T11:22:05.496Z,27.77
2019-05-02T11:24:33.658Z,26.23
2019-05-02T11:27:02.238Z,24.45
2019-05-02T11:29:32.223Z,24.40
2019-05-02T11:32:02.615Z,23.77
2019-05-02T11:34:32.484Z,24.27
2019-05-02T11:37:01.736Z,23.12
2019-05-02T11:39:37.548Z,24.12
2019-05-02T11:42:01.947Z,24.12
2019-05-02T11:44:29.843Z,24.55
2019-05-02T11:46:58.126Z,24.15
2019-05-02T11:49:26.281Z,22.90
2019-05-02T11:51:56.999Z,22.93
2019-05-02T11:54:24.394Z,21.42
2019-05-02T11:56:53.593Z,21.80
2019-05-02T11:59:27.718Z,21.50
2019-05-02T12:02:00.231Z,22.42
2019-05-02T12:04:29.035Z,22.02
2019-05-02T12:07:01.150Z,22.55
2019-05-02T12:09:27.158Z,24.12
2019-05-02T12:11:56.713Z,23.47
2019-05-02T12:14:27.385Z,22.60
2019-05-02T12:16:55.030Z,21.97
2019-05-02T12:19:24.244Z,20.60
2019-05-02T12:21:56.127Z,20.02
2019-05-02T12:24:24.367Z,18.55
2019-05-02T12:26:52.916Z,21.48
2019-05-02T12:29:21.826Z,20.45
2019-05-02T12:31:54.755Z,20.55
2019-05-02T12:34:21.690Z,20.85
2019-05-02T12:36:52.111Z,21.93
2019-05-02T12:39:21.944Z,21.85
2019-05-02T12:41:50.389Z,21.82
2019-05-02T12:44:18.748Z,21.27
2019-05-02T12:46:46.984Z,20.52
2019-05-02T12:49:24.379Z,20.32
2019-05-02T12:51:45.038Z,20.10
2019-05-02T12:54:13.272Z,20.72
2019-05-02T12:56:41.949Z,19.70
2019-05-02T12:59:11.827Z,20.50
2019-05-02T13:01:42.036Z,19.37
2019-05-02T13:04:12.400Z,17.90
2019-05-02T13:06:42.172Z,18.43
2019-05-02T13:09:12.644Z,19.77
2019-05-02T13:11:45.740Z,20.37
2019-05-02T13:14:19.019Z,21.90
2019-05-02T13:16:43.162Z,20.07
2019-05-02T13:19:11.938Z,22.17
2019-05-02T13:21:49.809Z,20.20
2019-05-02T13:24:16.709Z,20.00
2019-05-02T13:26:44.958Z,20.73
2019-05-02T13:29:13.754Z,19.90
2019-05-02T13:31:46.715Z,21.67
2019-05-02T13:34:32.024Z,22.40
2019-05-02T13:37:02.788Z,20.70
2019-05-02T13:39:49.560Z,21.10
2019-05-02T13:42:18.276Z,21.07
2019-05-02T13:44:54.028Z,19.83
2019-05-02T13:47:26.619Z,20.10
2019-05-02T13:49:59.097Z,19.30
2019-05-02T13:52:24.985Z,19.40
2019-05-02T13:54:53.726Z,19.50
2019-05-02T13:57:22.061Z,19.43
2019-05-02T13:59:52.386Z,17.80
2019-05-02T14:02:36.990Z,18.23
2019-05-02T14:05:06.755Z,20.03
2019-05-02T14:07:34.929Z,19.10
2019-05-02T14:10:05.869Z,18.50
2019-05-02T14:12:47.869Z,18.23
2019-05-02T14:15:17.457Z,19.30
2019-05-02T14:17:45.634Z,16.83
2019-05-02T14:20:14.129Z,17.57
2019-05-02T14:22:42.543Z,17.30
2019-05-02T14:25:12.272Z,17.20
2019-05-02T14:27:42.208Z,17.73
2019-05-02T14:30:12.145Z,16.07
2019-05-02T14:32:42.334Z,15.63
2019-05-02T14:35:28.182Z,15.30
2019-05-02T14:38:13.540Z,14.37
2019-05-02T14:40:59.843Z,15.10
2019-05-02T14:43:47.829Z,14.53
2019-05-02T14:46:17.908Z,12.60
2019-05-02T14:48:46.685Z,11.77
2019-05-02T14:51:16.691Z,11.83
2019-05-02T14:53:45.324Z,11.30
2019-05-02T14:56:17.686Z,12.17
2019-05-02T14:58:45.910Z,10.33
2019-05-02T15:01:17.177Z,11.17
2019-05-02T15:03:44.025Z,11.63
2019-05-02T15:06:12.247Z,11.33
2019-05-02T15:08:41.954Z,12.30
2019-05-02T15:11:12.427Z,13.20
2019-05-02T15:13:43.121Z,11.30
2019-05-02T15:16:17.483Z,11.50
2019-05-02T15:18:41.923Z,11.30
2019-05-02T15:21:16.207Z,12.57
2019-05-02T15:23:42.325Z,12.77
2019-05-02T15:26:13.703Z,13.07
2019-05-02T15:28:42.181Z,14.03
2019-05-02T15:31:19.045Z,12.03
2019-05-02T15:34:05.127Z,13.87
2019-05-02T15:36:37.031Z,13.60
2019-05-02T15:41:34.952Z,13.27
2019-05-02T15:44:03.184Z,15.77
2019-05-02T15:46:31.866Z,14.33
2019-05-02T15:49:01.742Z,14.87
2019-05-02T15:51:30.078Z,13.00
2019-05-02T15:54:08.244Z,14.80
2019-05-02T15:56:35.405Z,15.30
2019-05-02T15:59:06.218Z,13.77
2019-05-02T16:01:41.233Z,13.53
2019-05-02T16:04:12.704Z,13.47
2019-05-02T16:06:41.854Z,12.77
2019-05-02T16:09:11.819Z,12.03
2019-05-02T16:11:40.197Z,12.13
2019-05-02T16:14:08.349Z,12.40
2019-05-02T16:16:40.779Z,13.17
2019-05-02T16:19:06.458Z,12.63
2019-05-02T16:21:45.647Z,12.53
2019-05-02T16:24:18.173Z,13.67
2019-05-02T16:26:46.978Z,13.53
2019-05-02T16:29:23.296Z,13.77
2019-05-02T16:31:50.024Z,14.23
2019-05-02T16:34:18.278Z,13.47
2019-05-02T16:36:46.560Z,13.43
2019-05-02T16:39:15.480Z,13.87
2019-05-02T16:41:49.293Z,13.60
2019-05-02T16:44:13.723Z,13.43
2019-05-02T16:46:43.807Z,13.27
2019-05-02T16:49:15.617Z,11.90
2019-05-02T16:51:43.135Z,12.17
2019-05-02T16:54:12.771Z,12.17
2019-05-02T16:56:42.389Z,12.17
2019-05-02T16:59:12.644Z,13.67
2019-05-02T17:01:42.536Z,13.90
2019-05-02T17:04:12.778Z,14.40
2019-05-02T17:06:42.571Z,13.90
2019-05-02T17:09:33.905Z,14.43
2019-05-02T17:12:06.475Z,13.87
2019-05-02T17:14:32.256Z,14.83
2019-05-02T17:17:01.533Z,14.80
2019-05-02T17:19:33.382Z,14.10
2019-05-02T17:21:59.879Z,15.30
2019-05-02T17:24:28.134Z,14.00
2019-05-02T17:26:56.425Z,13.93
2019-05-02T17:29:24.644Z,14.77
2019-05-02T17:31:57.363Z,14.80
2019-05-02T17:34:30.028Z,13.67
2019-05-02T17:36:52.691Z,14.40
2019-05-02T17:39:22.277Z,14.47
2019-05-02T17:41:52.373Z,14.70
2019-05-02T17:44:22.611Z,14.13
2019-05-02T17:46:57.943Z,14.70
2019-05-02T17:49:23.679Z,14.57
2019-05-02T17:52:04.954Z,15.00
2019-05-02T17:54:26.356Z,13.53
2019-05-02T17:56:57.486Z,14.30
2019-05-02T17:59:28.312Z,14.07
2019-05-02T18:01:54.402Z,14.63
2019-05-02T18:04:22.688Z,14.63
2019-05-02T18:06:52.317Z,14.37
2019-05-02T18:09:21.667Z,13.37
2019-05-02T18:11:51.732Z,12.87
2019-05-02T18:14:22.103Z,14.40
2019-05-02T18:16:52.013Z,13.50
2019-05-02T18:19:21.726Z,13.77
2019-05-02T18:21:49.654Z,14.23
2019-05-02T18:24:17.824Z,13.20
2019-05-02T18:26:46.107Z,13.50
2019-05-02T18:29:15.509Z,12.60
2019-05-02T18:31:47.226Z,12.43
2019-05-02T18:34:20.232Z,13.03
2019-05-02T18:36:43.751Z,13.00
2019-05-02T18:39:12.993Z,12.67
2019-05-02T18:41:42.688Z,11.83
2019-05-02T18:44:11.819Z,13.10
2019-05-02T18:46:41.589Z,12.40
2019-05-02T18:49:10.133Z,12.30
2019-05-02T18:51:42.387Z,13.07
2019-05-02T18:54:12.147Z,12.60
2019-05-02T18:56:44.260Z,13.90
2019-05-02T18:59:14.188Z,14.47
2019-05-02T19:01:40.427Z,14.40
2019-05-02T19:06:36.268Z,12.50
2019-05-02T19:09:07.436Z,12.47
2019-05-02T19:11:35.870Z,12.00
2019-05-02T19:14:04.659Z,11.57
2019-05-02T19:16:33.049Z,12.17
2019-05-02T19:19:01.755Z,11.70
2019-05-02T19:21:32.154Z,12.70
2019-05-02T19:24:02.149Z,12.50
2019-05-02T19:26:30.183Z,12.00
2019-05-02T19:29:02.290Z,10.90
2019-05-02T19:31:32.043Z,10.33
2019-05-02T19:34:02.301Z,9.80
2019-05-02T19:36:32.647Z,10.73
2019-05-02T19:39:07.815Z,10.93
2019-05-02T19:41:55.167Z,10.60
2019-05-02T19:44:29.123Z,10.50
2019-05-02T19:46:53.346Z,11.93
2019-05-02T19:49:23.077Z,11.53
2019-05-02T19:51:56.603Z,10.87
2019-05-02T19:54:21.982Z,12.13
2019-05-02T19:56:52.178Z,26.00
2019-05-02T19:59:24.519Z,19.60
2019-05-02T20:01:52.008Z,24.77
2019-05-02T20:04:22.046Z,23.67
2019-05-02T20:06:49.929Z,23.83
2019-05-02T20:09:18.092Z,17.97
2019-05-02T20:11:46.345Z,9.90
2019-05-02T20:14:14.597Z,10.10
2019-05-02T20:16:46.040Z,9.50
2019-05-02T20:19:17.203Z,9.60
2019-05-02T20:21:45.897Z,11.33
2019-05-02T20:24:19.158Z,10.50
2019-05-02T20:26:46.630Z,10.70
2019-05-02T20:29:14.175Z,13.20
2019-05-02T20:31:42.447Z,16.20
2019-05-02T20:34:11.774Z,16.50
2019-05-02T20:36:40.171Z,16.90
2019-05-02T20:39:09.026Z,14.90
2019-05-02T20:41:37.299Z,13.87
2019-05-02T20:44:05.641Z,13.70
2019-05-02T20:46:33.954Z,12.70
2019-05-02T20:49:02.283Z,11.43
2019-05-02T20:51:31.943Z,10.90
2019-05-02T20:54:01.985Z,11.20
2019-05-02T20:56:32.084Z,10.70
2019-05-02T20:59:02.027Z,10.57
2019-05-02T21:01:32.159Z,10.43
2019-05-02T21:04:02.557Z,10.13
2019-05-02T21:06:41.401Z,11.03
2019-05-02T21:09:25.848Z,10.27
2019-05-02T21:11:55.830Z,10.57
2019-05-02T21:14:24.097Z,11.73
2019-05-02T21:16:52.356Z,10.80
2019-05-02T21:19:21.764Z,10.93
2019-05-02T21:21:50.166Z,11.73
2019-05-02T21:24:18.526Z,11.37
2019-05-02T21:26:46.944Z,11.57
2019-05-02T21:29:17.432Z,11.67
2019-05-02T21:31:45.736Z,11.30
2019-05-02T21:34:14.008Z,11.80
2019-05-02T21:36:42.594Z,11.90
2019-05-02T21:39:11.998Z,12.90
2019-05-02T21:41:41.996Z,12.67
2019-05-02T21:44:10.137Z,11.97
2019-05-02T21:46:38.425Z,12.50
2019-05-02T21:49:06.776Z,12.87
2019-05-02T21:51:36.704Z,12.87
2019-05-02T21:54:06.629Z,14.20
2019-05-02T21:56:39.524Z,13.73
2019-05-02T21:59:12.171Z,13.30
2019-05-02T22:01:47.737Z,13.13
2019-05-02T22:04:16.072Z,13.70
2019-05-02T22:06:44.398Z,13.50
2019-05-02T22:09:12.732Z,12.63
2019-05-02T22:11:42.980Z,12.17
2019-05-02T22:14:13.376Z,12.30
2019-05-02T22:16:42.107Z,11.43
2019-05-02T22:19:10.442Z,11.37
2019-05-02T22:21:38.706Z,11.77
2019-05-02T22:24:11.043Z,12.10
2019-05-02T22:26:36.882Z,11.53
2019-05-02T22:29:05.252Z,11.97
2019-05-02T22:31:33.585Z,11.57
2019-05-02T22:34:02.297Z,12.40
2019-05-02T22:36:32.460Z,11.53
2019-05-02T22:39:14.623Z,12.27
2019-05-02T22:41:42.935Z,12.13
2019-05-02T22:44:12.449Z,11.43
2019-05-02T22:46:43.128Z,12.03
2019-05-02T22:49:14.620Z,12.60
2019-05-02T22:51:42.691Z,12.70
2019-05-02T22:54:23.358Z,12.00
2019-05-02T22:56:42.596Z,12.43
2019-05-02T22:59:17.148Z,12.40
2019-05-02T23:08:15.871Z,12.07
2019-05-02T23:11:00.495Z,12.30
2019-05-02T23:13:39.869Z,13.37
2019-05-02T23:19:53.898Z,12.87
2019-05-02T23:23:06.830Z,11.67
2019-05-02T23:28:59.400Z,11.53
2019-05-02T23:31:28.780Z,11.93
2019-05-02T23:34:01.873Z,12.10
2019-05-02T23:36:32.240Z,11.43
2019-05-02T23:39:01.850Z,12.43
2019-05-02T23:41:30.399Z,12.30
2019-05-02T23:43:58.654Z,12.70
2019-05-02T23:46:26.980Z,12.17
2019-05-02T23:48:55.318Z,12.80
2019-05-02T23:51:23.578Z,12.13
2019-05-02T23:53:52.766Z,12.03
2019-05-02T23:56:22.107Z,12.53
2019-05-02T23:58:51.946Z,12.17
